sensor_id;sensor_type;location;lat;lon;timestamp;temperature;humidity
31837;DHT22;18401;49.344;6.240;2023-08-31T00:02:13;9.60;99.90
31837;DHT22;18401;49.344;6.240;2023-08-31T00:04:38;9.60;99.90
31837;DHT22;18401;49.344;6.240;2023-08-31T00:07:04;9.50;99.90
31837;DHT22;18401;49.344;6.240;2023-08-31T00:09:30;9.30;99.90
31837;DHT22;18401;49.344;6.240;2023-08-31T00:11:56;9.50;99.90
31837;DHT22;18401;49.344;6.240;2023-08-31T00:14:23;9.70;99.90
31837;DHT22;18401;49.344;6.240;2023-08-31T00:16:48;9.80;99.90
31837;DHT22;18401;49.344;6.240;2023-08-31T00:19:15;9.90;99.90
31837;DHT22;18401;49.344;6.240;2023-08-31T00:21:41;9.90;99.90
31837;DHT22;18401;49.344;6.240;2023-08-31T00:24:07;9.80;99.90
31837;DHT22;18401;49.344;6.240;2023-08-31T00:26:33;9.70;99.90
31837;DHT22;18401;49.344;6.240;2023-08-31T00:29:00;9.70;99.90
31837;DHT22;18401;49.344;6.240;2023-08-31T00:31:26;9.70;99.90
31837;DHT22;18401;49.344;6.240;2023-08-31T00:33:53;9.70;99.90
31837;DHT22;18401;49.344;6.240;2023-08-31T00:36:19;9.60;99.90
31837;DHT22;18401;49.344;6.240;2023-08-31T00:38:44;9.40;99.90
31837;DHT22;18401;49.344;6.240;2023-08-31T00:41:11;9.40;99.90
31837;DHT22;18401;49.344;6.240;2023-08-31T00:43:37;9.40;99.90
31837;DHT22;18401;49.344;6.240;2023-08-31T00:46:03;9.40;99.90
31837;DHT22;18401;49.344;6.240;2023-08-31T00:48:29;9.40;99.90
31837;DHT22;18401;49.344;6.240;2023-08-31T00:50:55;9.50;99.90
31837;DHT22;18401;49.344;6.240;2023-08-31T00:53:21;9.50;99.90
31837;DHT22;18401;49.344;6.240;2023-08-31T00:55:47;9.50;99.90
31837;DHT22;18401;49.344;6.240;2023-08-31T00:58:13;9.50;99.90
31837;DHT22;18401;49.344;6.240;2023-08-31T01:01:00;9.50;99.90
31837;DHT22;18401;49.344;6.240;2023-08-31T01:06:38;9.60;99.90
31837;DHT22;18401;49.344;6.240;2023-08-31T01:12:18;9.70;99.90
31837;DHT22;18401;49.344;6.240;2023-08-31T01:14:59;9.70;99.90
31837;DHT22;18401;49.344;6.240;2023-08-31T01:17:29;9.70;99.90
31837;DHT22;18401;49.344;6.240;2023-08-31T01:19:58;9.70;99.90
31837;DHT22;18401;49.344;6.240;2023-08-31T01:24:50;9.70;99.90
31837;DHT22;18401;49.344;6.240;2023-08-31T01:27:17;9.60;99.90
31837;DHT22;18401;49.344;6.240;2023-08-31T01:29:43;9.60;99.90
31837;DHT22;18401;49.344;6.240;2023-08-31T01:32:09;9.70;99.90
31837;DHT22;18401;49.344;6.240;2023-08-31T01:34:35;9.70;99.90
31837;DHT22;18401;49.344;6.240;2023-08-31T01:37:03;9.70;99.90
31837;DHT22;18401;49.344;6.240;2023-08-31T01:39:52;9.70;99.90
31837;DHT22;18401;49.344;6.240;2023-08-31T01:42:18;9.70;99.90
31837;DHT22;18401;49.344;6.240;2023-08-31T01:44:45;9.80;99.90
31837;DHT22;18401;49.344;6.240;2023-08-31T01:47:15;9.70;99.90
31837;DHT22;18401;49.344;6.240;2023-08-31T01:49:41;9.60;99.90
31837;DHT22;18401;49.344;6.240;2023-08-31T01:52:08;9.50;99.90
31837;DHT22;18401;49.344;6.240;2023-08-31T01:54:34;9.40;99.90
31837;DHT22;18401;49.344;6.240;2023-08-31T01:57:02;9.20;99.90
31837;DHT22;18401;49.344;6.240;2023-08-31T01:59:28;9.20;99.90
31837;DHT22;18401;49.344;6.240;2023-08-31T02:01:54;9.20;99.90
31837;DHT22;18401;49.344;6.240;2023-08-31T02:04:20;9.10;99.90
31837;DHT22;18401;49.344;6.240;2023-08-31T02:06:45;8.90;99.90
31837;DHT22;18401;49.344;6.240;2023-08-31T02:09:13;8.80;99.90
31837;DHT22;18401;49.344;6.240;2023-08-31T02:11:39;8.70;99.90
31837;DHT22;18401;49.344;6.240;2023-08-31T02:14:05;8.80;99.90
31837;DHT22;18401;49.344;6.240;2023-08-31T02:16:31;9.00;99.90
31837;DHT22;18401;49.344;6.240;2023-08-31T02:18:57;9.00;99.90
31837;DHT22;18401;49.344;6.240;2023-08-31T02:21:23;9.10;99.90
31837;DHT22;18401;49.344;6.240;2023-08-31T02:23:48;8.80;99.90
31837;DHT22;18401;49.344;6.240;2023-08-31T02:26:14;8.70;99.90
31837;DHT22;18401;49.344;6.240;2023-08-31T02:28:40;8.80;99.90
31837;DHT22;18401;49.344;6.240;2023-08-31T02:31:05;8.90;99.90
31837;DHT22;18401;49.344;6.240;2023-08-31T02:33:31;9.00;99.90
31837;DHT22;18401;49.344;6.240;2023-08-31T02:35:57;9.10;99.90
31837;DHT22;18401;49.344;6.240;2023-08-31T02:38:22;9.10;99.90
31837;DHT22;18401;49.344;6.240;2023-08-31T02:40:49;9.00;99.90
31837;DHT22;18401;49.344;6.240;2023-08-31T02:43:15;9.00;99.90
31837;DHT22;18401;49.344;6.240;2023-08-31T02:45:41;9.00;99.90
31837;DHT22;18401;49.344;6.240;2023-08-31T02:48:07;9.00;99.90
31837;DHT22;18401;49.344;6.240;2023-08-31T02:50:34;9.00;99.90
31837;DHT22;18401;49.344;6.240;2023-08-31T02:53:00;9.00;99.90
31837;DHT22;18401;49.344;6.240;2023-08-31T02:55:26;8.90;99.90
31837;DHT22;18401;49.344;6.240;2023-08-31T02:57:51;9.00;99.90
31837;DHT22;18401;49.344;6.240;2023-08-31T03:00:17;8.90;99.90
31837;DHT22;18401;49.344;6.240;2023-08-31T03:02:47;9.00;99.90
31837;DHT22;18401;49.344;6.240;2023-08-31T03:05:13;8.90;99.90
31837;DHT22;18401;49.344;6.240;2023-08-31T03:07:39;8.80;99.90
31837;DHT22;18401;49.344;6.240;2023-08-31T03:10:05;8.80;99.90
31837;DHT22;18401;49.344;6.240;2023-08-31T03:12:31;8.90;99.90
31837;DHT22;18401;49.344;6.240;2023-08-31T03:14:56;8.90;99.90
31837;DHT22;18401;49.344;6.240;2023-08-31T03:17:22;8.90;99.90
31837;DHT22;18401;49.344;6.240;2023-08-31T03:19:49;8.90;99.90
31837;DHT22;18401;49.344;6.240;2023-08-31T03:22:14;8.90;99.90
31837;DHT22;18401;49.344;6.240;2023-08-31T03:24:40;9.00;99.90
31837;DHT22;18401;49.344;6.240;2023-08-31T03:27:05;9.00;99.90
31837;DHT22;18401;49.344;6.240;2023-08-31T03:29:31;9.00;99.90
31837;DHT22;18401;49.344;6.240;2023-08-31T03:31:59;8.90;99.90
31837;DHT22;18401;49.344;6.240;2023-08-31T03:34:31;9.00;99.90
31837;DHT22;18401;49.344;6.240;2023-08-31T03:36:58;9.00;99.90
31837;DHT22;18401;49.344;6.240;2023-08-31T03:39:25;9.00;99.90
31837;DHT22;18401;49.344;6.240;2023-08-31T03:41:51;9.10;99.90
31837;DHT22;18401;49.344;6.240;2023-08-31T03:44:16;9.10;99.90
31837;DHT22;18401;49.344;6.240;2023-08-31T03:46:43;9.00;99.90
31837;DHT22;18401;49.344;6.240;2023-08-31T03:49:09;9.00;99.90
31837;DHT22;18401;49.344;6.240;2023-08-31T03:51:35;9.10;99.90
31837;DHT22;18401;49.344;6.240;2023-08-31T03:54:00;9.10;99.90
31837;DHT22;18401;49.344;6.240;2023-08-31T03:56:26;9.10;99.90
31837;DHT22;18401;49.344;6.240;2023-08-31T03:58:52;9.00;99.90
31837;DHT22;18401;49.344;6.240;2023-08-31T04:01:18;8.90;99.90
31837;DHT22;18401;49.344;6.240;2023-08-31T04:03:44;9.00;99.90
31837;DHT22;18401;49.344;6.240;2023-08-31T04:06:10;9.00;99.90
31837;DHT22;18401;49.344;6.240;2023-08-31T04:08:35;9.10;99.90
31837;DHT22;18401;49.344;6.240;2023-08-31T04:11:01;9.10;99.90
31837;DHT22;18401;49.344;6.240;2023-08-31T04:13:27;9.10;99.90
31837;DHT22;18401;49.344;6.240;2023-08-31T04:15:53;9.10;99.90
31837;DHT22;18401;49.344;6.240;2023-08-31T04:18:19;9.10;99.90
31837;DHT22;18401;49.344;6.240;2023-08-31T04:20:49;9.20;99.90
31837;DHT22;18401;49.344;6.240;2023-08-31T04:23:16;9.30;99.90
31837;DHT22;18401;49.344;6.240;2023-08-31T04:25:42;9.20;99.90
31837;DHT22;18401;49.344;6.240;2023-08-31T04:28:08;9.20;99.90
31837;DHT22;18401;49.344;6.240;2023-08-31T04:30:34;9.10;99.90
31837;DHT22;18401;49.344;6.240;2023-08-31T04:32:59;9.10;99.90
31837;DHT22;18401;49.344;6.240;2023-08-31T04:35:25;9.00;99.90
31837;DHT22;18401;49.344;6.240;2023-08-31T04:37:51;8.90;99.90
31837;DHT22;18401;49.344;6.240;2023-08-31T04:40:16;8.90;99.90
31837;DHT22;18401;49.344;6.240;2023-08-31T04:42:42;8.80;99.90
31837;DHT22;18401;49.344;6.240;2023-08-31T04:45:08;8.90;99.90
31837;DHT22;18401;49.344;6.240;2023-08-31T04:47:35;8.80;99.90
31837;DHT22;18401;49.344;6.240;2023-08-31T04:50:01;8.80;99.90
31837;DHT22;18401;49.344;6.240;2023-08-31T04:52:27;8.80;99.90
31837;DHT22;18401;49.344;6.240;2023-08-31T04:54:53;8.80;99.90
31837;DHT22;18401;49.344;6.240;2023-08-31T04:57:19;8.80;99.90
31837;DHT22;18401;49.344;6.240;2023-08-31T04:59:45;8.90;99.90
31837;DHT22;18401;49.344;6.240;2023-08-31T05:02:10;8.80;99.90
31837;DHT22;18401;49.344;6.240;2023-08-31T05:04:36;8.90;99.90
31837;DHT22;18401;49.344;6.240;2023-08-31T05:07:02;8.80;99.90
31837;DHT22;18401;49.344;6.240;2023-08-31T05:09:28;8.90;99.90
31837;DHT22;18401;49.344;6.240;2023-08-31T05:11:58;8.90;99.90
31837;DHT22;18401;49.344;6.240;2023-08-31T05:14:24;8.90;99.90
31837;DHT22;18401;49.344;6.240;2023-08-31T05:16:50;8.90;99.90
31837;DHT22;18401;49.344;6.240;2023-08-31T05:19:16;8.90;99.90
31837;DHT22;18401;49.344;6.240;2023-08-31T05:21:41;9.00;99.90
31837;DHT22;18401;49.344;6.240;2023-08-31T05:24:07;9.10;99.90
31837;DHT22;18401;49.344;6.240;2023-08-31T05:26:33;9.00;99.90
31837;DHT22;18401;49.344;6.240;2023-08-31T05:28:58;9.10;99.90
31837;DHT22;18401;49.344;6.240;2023-08-31T05:31:24;9.10;99.90
31837;DHT22;18401;49.344;6.240;2023-08-31T05:33:50;9.10;99.90
31837;DHT22;18401;49.344;6.240;2023-08-31T05:36:15;9.00;99.90
31837;DHT22;18401;49.344;6.240;2023-08-31T05:38:41;9.10;99.90
31837;DHT22;18401;49.344;6.240;2023-08-31T05:41:07;9.00;99.90
31837;DHT22;18401;49.344;6.240;2023-08-31T05:43:37;9.20;99.90
31837;DHT22;18401;49.344;6.240;2023-08-31T05:46:05;9.30;99.90
31837;DHT22;18401;49.344;6.240;2023-08-31T05:48:31;9.40;99.90
31837;DHT22;18401;49.344;6.240;2023-08-31T05:50:57;9.60;99.90
31837;DHT22;18401;49.344;6.240;2023-08-31T05:53:22;9.70;99.90
31837;DHT22;18401;49.344;6.240;2023-08-31T05:55:48;9.80;99.90
31837;DHT22;18401;49.344;6.240;2023-08-31T05:58:14;9.90;99.90
31837;DHT22;18401;49.344;6.240;2023-08-31T06:00:40;9.90;99.90
31837;DHT22;18401;49.344;6.240;2023-08-31T06:03:05;10.00;99.90
31837;DHT22;18401;49.344;6.240;2023-08-31T06:05:32;10.00;99.90
31837;DHT22;18401;49.344;6.240;2023-08-31T06:07:58;10.00;99.90
31837;DHT22;18401;49.344;6.240;2023-08-31T06:10:24;10.20;99.90
31837;DHT22;18401;49.344;6.240;2023-08-31T06:12:50;10.30;99.90
31837;DHT22;18401;49.344;6.240;2023-08-31T06:15:18;10.50;99.90
31837;DHT22;18401;49.344;6.240;2023-08-31T06:17:44;10.60;99.90
31837;DHT22;18401;49.344;6.240;2023-08-31T06:20:10;10.70;99.90
31837;DHT22;18401;49.344;6.240;2023-08-31T06:22:36;10.80;99.90
31837;DHT22;18401;49.344;6.240;2023-08-31T06:25:02;11.10;99.90
31837;DHT22;18401;49.344;6.240;2023-08-31T06:27:29;11.30;99.90
31837;DHT22;18401;49.344;6.240;2023-08-31T06:29:55;11.30;99.90
31837;DHT22;18401;49.344;6.240;2023-08-31T06:32:21;11.40;99.90
31837;DHT22;18401;49.344;6.240;2023-08-31T06:34:47;11.50;99.90
31837;DHT22;18401;49.344;6.240;2023-08-31T06:37:12;11.60;99.90
31837;DHT22;18401;49.344;6.240;2023-08-31T06:39:38;11.80;99.90
31837;DHT22;18401;49.344;6.240;2023-08-31T06:42:04;11.90;99.90
31837;DHT22;18401;49.344;6.240;2023-08-31T06:44:30;12.00;99.90
31837;DHT22;18401;49.344;6.240;2023-08-31T06:46:56;12.10;99.90
31837;DHT22;18401;49.344;6.240;2023-08-31T06:49:22;12.20;99.90
31837;DHT22;18401;49.344;6.240;2023-08-31T06:51:49;12.30;99.90
31837;DHT22;18401;49.344;6.240;2023-08-31T06:54:14;12.30;99.90
31837;DHT22;18401;49.344;6.240;2023-08-31T06:56:40;12.40;99.90
31837;DHT22;18401;49.344;6.240;2023-08-31T06:59:06;12.50;99.90
31837;DHT22;18401;49.344;6.240;2023-08-31T07:01:32;12.70;99.90
31837;DHT22;18401;49.344;6.240;2023-08-31T07:04:00;12.80;99.90
31837;DHT22;18401;49.344;6.240;2023-08-31T07:06:26;12.70;99.90
31837;DHT22;18401;49.344;6.240;2023-08-31T07:08:52;12.70;99.90
31837;DHT22;18401;49.344;6.240;2023-08-31T07:11:18;12.70;99.90
31837;DHT22;18401;49.344;6.240;2023-08-31T07:13:44;12.90;99.90
31837;DHT22;18401;49.344;6.240;2023-08-31T07:16:09;12.80;99.90
31837;DHT22;18401;49.344;6.240;2023-08-31T07:18:36;12.80;99.90
31837;DHT22;18401;49.344;6.240;2023-08-31T07:21:02;12.80;99.90
31837;DHT22;18401;49.344;6.240;2023-08-31T07:23:28;12.80;99.90
31837;DHT22;18401;49.344;6.240;2023-08-31T07:25:56;12.70;99.90
31837;DHT22;18401;49.344;6.240;2023-08-31T07:28:23;12.80;99.90
31837;DHT22;18401;49.344;6.240;2023-08-31T07:30:49;13.00;99.90
31837;DHT22;18401;49.344;6.240;2023-08-31T07:33:14;13.20;99.90
31837;DHT22;18401;49.344;6.240;2023-08-31T07:35:40;13.20;99.90
31837;DHT22;18401;49.344;6.240;2023-08-31T07:38:07;13.30;99.90
31837;DHT22;18401;49.344;6.240;2023-08-31T07:40:35;13.20;99.90
31837;DHT22;18401;49.344;6.240;2023-08-31T07:43:00;13.70;99.90
31837;DHT22;18401;49.344;6.240;2023-08-31T07:45:26;13.60;99.90
31837;DHT22;18401;49.344;6.240;2023-08-31T07:47:51;13.60;99.90
31837;DHT22;18401;49.344;6.240;2023-08-31T07:50:17;13.90;99.90
31837;DHT22;18401;49.344;6.240;2023-08-31T07:52:43;13.80;99.90
31837;DHT22;18401;49.344;6.240;2023-08-31T07:55:08;13.80;99.90
31837;DHT22;18401;49.344;6.240;2023-08-31T07:57:34;14.00;99.90
31837;DHT22;18401;49.344;6.240;2023-08-31T08:00:00;14.30;99.90
31837;DHT22;18401;49.344;6.240;2023-08-31T08:02:26;14.10;99.90
31837;DHT22;18401;49.344;6.240;2023-08-31T08:04:51;14.20;99.90
31837;DHT22;18401;49.344;6.240;2023-08-31T08:07:17;14.30;99.90
31837;DHT22;18401;49.344;6.240;2023-08-31T08:09:42;14.80;99.90
31837;DHT22;18401;49.344;6.240;2023-08-31T08:12:08;15.00;99.90
31837;DHT22;18401;49.344;6.240;2023-08-31T08:14:34;14.80;99.90
31837;DHT22;18401;49.344;6.240;2023-08-31T08:17:00;14.50;99.90
31837;DHT22;18401;49.344;6.240;2023-08-31T08:19:25;14.30;99.90
31837;DHT22;18401;49.344;6.240;2023-08-31T08:21:51;14.10;99.90
31837;DHT22;18401;49.344;6.240;2023-08-31T08:24:17;14.10;99.90
31837;DHT22;18401;49.344;6.240;2023-08-31T08:26:43;14.10;99.90
31837;DHT22;18401;49.344;6.240;2023-08-31T08:29:08;14.30;99.90
31837;DHT22;18401;49.344;6.240;2023-08-31T08:31:34;14.40;99.90
31837;DHT22;18401;49.344;6.240;2023-08-31T08:34:00;14.70;99.90
31837;DHT22;18401;49.344;6.240;2023-08-31T08:36:26;14.70;99.90
31837;DHT22;18401;49.344;6.240;2023-08-31T08:38:51;14.90;99.90
31837;DHT22;18401;49.344;6.240;2023-08-31T08:41:23;15.20;99.90
31837;DHT22;18401;49.344;6.240;2023-08-31T08:43:51;15.40;99.90
31837;DHT22;18401;49.344;6.240;2023-08-31T08:46:17;15.60;99.90
31837;DHT22;18401;49.344;6.240;2023-08-31T08:48:44;15.50;99.90
31837;DHT22;18401;49.344;6.240;2023-08-31T08:51:10;15.80;99.90
31837;DHT22;18401;49.344;6.240;2023-08-31T08:53:36;15.80;99.90
31837;DHT22;18401;49.344;6.240;2023-08-31T08:56:04;15.70;99.90
31837;DHT22;18401;49.344;6.240;2023-08-31T08:58:29;15.50;99.90
31837;DHT22;18401;49.344;6.240;2023-08-31T09:00:55;15.50;99.90
31837;DHT22;18401;49.344;6.240;2023-08-31T09:03:24;15.60;99.90
31837;DHT22;18401;49.344;6.240;2023-08-31T09:05:50;15.70;99.90
31837;DHT22;18401;49.344;6.240;2023-08-31T09:08:26;15.60;99.90
31837;DHT22;18401;49.344;6.240;2023-08-31T09:10:52;15.80;99.90
31837;DHT22;18401;49.344;6.240;2023-08-31T09:13:18;16.30;99.90
31837;DHT22;18401;49.344;6.240;2023-08-31T09:15:47;16.50;99.90
31837;DHT22;18401;49.344;6.240;2023-08-31T09:18:22;16.50;99.90
31837;DHT22;18401;49.344;6.240;2023-08-31T09:20:48;16.70;99.90
31837;DHT22;18401;49.344;6.240;2023-08-31T09:23:14;16.60;99.90
31837;DHT22;18401;49.344;6.240;2023-08-31T09:25:48;16.60;99.90
31837;DHT22;18401;49.344;6.240;2023-08-31T09:28:18;16.60;99.90
31837;DHT22;18401;49.344;6.240;2023-08-31T09:30:47;16.50;99.90
31837;DHT22;18401;49.344;6.240;2023-08-31T09:33:18;16.50;99.90
31837;DHT22;18401;49.344;6.240;2023-08-31T09:38:15;16.50;99.90
31837;DHT22;18401;49.344;6.240;2023-08-31T09:40:41;16.80;99.90
31837;DHT22;18401;49.344;6.240;2023-08-31T09:43:07;17.30;99.90
31837;DHT22;18401;49.344;6.240;2023-08-31T09:45:34;17.70;99.90
31837;DHT22;18401;49.344;6.240;2023-08-31T09:48:02;17.60;99.90
31837;DHT22;18401;49.344;6.240;2023-08-31T09:50:33;17.80;99.90
31837;DHT22;18401;49.344;6.240;2023-08-31T09:53:04;17.50;99.90
31837;DHT22;18401;49.344;6.240;2023-08-31T09:55:31;17.70;99.90
31837;DHT22;18401;49.344;6.240;2023-08-31T09:58:01;18.10;99.90
31837;DHT22;18401;49.344;6.240;2023-08-31T10:00:29;18.40;99.90
31837;DHT22;18401;49.344;6.240;2023-08-31T10:02:58;18.30;99.90
31837;DHT22;18401;49.344;6.240;2023-08-31T10:05:25;18.10;99.90
31837;DHT22;18401;49.344;6.240;2023-08-31T10:07:51;17.90;99.90
31837;DHT22;18401;49.344;6.240;2023-08-31T10:10:17;17.90;99.90
31837;DHT22;18401;49.344;6.240;2023-08-31T10:12:45;17.30;99.90
31837;DHT22;18401;49.344;6.240;2023-08-31T10:15:13;17.10;99.90
31837;DHT22;18401;49.344;6.240;2023-08-31T10:17:42;17.20;99.90
31837;DHT22;18401;49.344;6.240;2023-08-31T10:20:09;17.30;99.90
31837;DHT22;18401;49.344;6.240;2023-08-31T10:22:36;18.20;99.90
31837;DHT22;18401;49.344;6.240;2023-08-31T10:25:04;19.00;99.90
31837;DHT22;18401;49.344;6.240;2023-08-31T10:27:41;17.80;99.90
31837;DHT22;18401;49.344;6.240;2023-08-31T10:35:52;16.80;99.90
31837;DHT22;18401;49.344;6.240;2023-08-31T10:38:31;16.90;99.90
31837;DHT22;18401;49.344;6.240;2023-08-31T10:43:53;17.50;99.90
31837;DHT22;18401;49.344;6.240;2023-08-31T10:46:27;17.60;99.90
31837;DHT22;18401;49.344;6.240;2023-08-31T10:51:45;17.60;99.90
31837;DHT22;18401;49.344;6.240;2023-08-31T10:54:12;17.40;99.90
31837;DHT22;18401;49.344;6.240;2023-08-31T10:57:14;17.40;99.90
31837;DHT22;18401;49.344;6.240;2023-08-31T11:02:09;17.70;99.90
31837;DHT22;18401;49.344;6.240;2023-08-31T11:07:31;17.20;99.90
31837;DHT22;18401;49.344;6.240;2023-08-31T11:10:11;17.00;99.90
31837;DHT22;18401;49.344;6.240;2023-08-31T11:12:41;17.00;99.90
31837;DHT22;18401;49.344;6.240;2023-08-31T11:15:07;16.90;99.90
31837;DHT22;18401;49.344;6.240;2023-08-31T11:17:33;17.00;99.90
31837;DHT22;18401;49.344;6.240;2023-08-31T11:20:00;17.20;99.90
31837;DHT22;18401;49.344;6.240;2023-08-31T11:22:26;17.60;99.90
31837;DHT22;18401;49.344;6.240;2023-08-31T11:24:52;17.80;99.90
31837;DHT22;18401;49.344;6.240;2023-08-31T11:27:22;18.10;99.90
31837;DHT22;18401;49.344;6.240;2023-08-31T11:29:48;19.00;99.90
31837;DHT22;18401;49.344;6.240;2023-08-31T11:32:14;18.60;99.90
31837;DHT22;18401;49.344;6.240;2023-08-31T11:34:44;18.20;99.90
31837;DHT22;18401;49.344;6.240;2023-08-31T11:37:14;19.20;99.90
31837;DHT22;18401;49.344;6.240;2023-08-31T11:39:52;19.30;99.90
31837;DHT22;18401;49.344;6.240;2023-08-31T11:42:20;19.10;99.90
31837;DHT22;18401;49.344;6.240;2023-08-31T11:44:50;19.80;99.90
31837;DHT22;18401;49.344;6.240;2023-08-31T11:47:17;19.60;99.90
31837;DHT22;18401;49.344;6.240;2023-08-31T11:49:46;18.90;99.90
31837;DHT22;18401;49.344;6.240;2023-08-31T11:52:12;19.90;99.90
31837;DHT22;18401;49.344;6.240;2023-08-31T11:54:42;20.40;99.90
31837;DHT22;18401;49.344;6.240;2023-08-31T11:57:11;20.60;99.90
31837;DHT22;18401;49.344;6.240;2023-08-31T11:59:38;21.50;99.90
31837;DHT22;18401;49.344;6.240;2023-08-31T12:02:08;20.20;99.90
31837;DHT22;18401;49.344;6.240;2023-08-31T12:04:44;19.10;99.90
31837;DHT22;18401;49.344;6.240;2023-08-31T12:07:10;19.90;99.90
31837;DHT22;18401;49.344;6.240;2023-08-31T12:09:36;20.10;99.90
31837;DHT22;18401;49.344;6.240;2023-08-31T12:12:02;20.10;99.90
31837;DHT22;18401;49.344;6.240;2023-08-31T12:14:30;19.70;99.90
31837;DHT22;18401;49.344;6.240;2023-08-31T12:17:05;20.00;99.90
31837;DHT22;18401;49.344;6.240;2023-08-31T12:19:31;19.40;99.90
31837;DHT22;18401;49.344;6.240;2023-08-31T12:21:57;19.00;99.90
31837;DHT22;18401;49.344;6.240;2023-08-31T12:24:23;18.60;99.90
31837;DHT22;18401;49.344;6.240;2023-08-31T12:26:50;18.30;99.90
31837;DHT22;18401;49.344;6.240;2023-08-31T12:29:16;19.40;99.90
31837;DHT22;18401;49.344;6.240;2023-08-31T12:31:42;19.10;99.90
31837;DHT22;18401;49.344;6.240;2023-08-31T12:34:09;19.00;99.90
31837;DHT22;18401;49.344;6.240;2023-08-31T12:36:35;18.80;99.90
31837;DHT22;18401;49.344;6.240;2023-08-31T12:39:06;18.20;99.90
31837;DHT22;18401;49.344;6.240;2023-08-31T12:41:35;18.10;99.90
31837;DHT22;18401;49.344;6.240;2023-08-31T12:44:02;17.80;99.90
31837;DHT22;18401;49.344;6.240;2023-08-31T12:46:29;17.70;99.90
31837;DHT22;18401;49.344;6.240;2023-08-31T12:48:55;17.60;99.90
31837;DHT22;18401;49.344;6.240;2023-08-31T12:51:20;17.50;99.90
31837;DHT22;18401;49.344;6.240;2023-08-31T12:53:46;17.60;99.90
31837;DHT22;18401;49.344;6.240;2023-08-31T12:56:12;17.70;99.90
31837;DHT22;18401;49.344;6.240;2023-08-31T12:58:38;18.00;99.90
31837;DHT22;18401;49.344;6.240;2023-08-31T13:01:04;18.50;99.90
31837;DHT22;18401;49.344;6.240;2023-08-31T13:03:30;19.40;99.90
31837;DHT22;18401;49.344;6.240;2023-08-31T13:05:56;20.50;99.90
31837;DHT22;18401;49.344;6.240;2023-08-31T13:08:21;20.60;99.90
31837;DHT22;18401;49.344;6.240;2023-08-31T13:10:54;20.30;99.90
31837;DHT22;18401;49.344;6.240;2023-08-31T13:13:20;20.50;94.30
31837;DHT22;18401;49.344;6.240;2023-08-31T13:15:47;19.90;99.90
31837;DHT22;18401;49.344;6.240;2023-08-31T13:18:13;19.10;99.90
31837;DHT22;18401;49.344;6.240;2023-08-31T13:20:39;18.90;99.90
31837;DHT22;18401;49.344;6.240;2023-08-31T13:23:04;18.60;99.90
31837;DHT22;18401;49.344;6.240;2023-08-31T13:25:31;18.30;99.90
31837;DHT22;18401;49.344;6.240;2023-08-31T13:27:56;18.30;99.90
31837;DHT22;18401;49.344;6.240;2023-08-31T13:30:22;19.10;99.90
31837;DHT22;18401;49.344;6.240;2023-08-31T13:32:48;19.60;99.90
31837;DHT22;18401;49.344;6.240;2023-08-31T13:35:14;19.50;99.90
31837;DHT22;18401;49.344;6.240;2023-08-31T13:37:40;19.80;99.90
31837;DHT22;18401;49.344;6.240;2023-08-31T13:40:06;19.50;99.90
31837;DHT22;18401;49.344;6.240;2023-08-31T13:42:36;19.10;99.90
31837;DHT22;18401;49.344;6.240;2023-08-31T13:45:08;19.10;99.90
31837;DHT22;18401;49.344;6.240;2023-08-31T13:47:34;19.20;99.90
31837;DHT22;18401;49.344;6.240;2023-08-31T13:50:00;19.30;99.90
31837;DHT22;18401;49.344;6.240;2023-08-31T13:52:26;19.20;99.90
31837;DHT22;18401;49.344;6.240;2023-08-31T13:54:52;19.20;99.90
31837;DHT22;18401;49.344;6.240;2023-08-31T13:57:18;19.20;99.90
31837;DHT22;18401;49.344;6.240;2023-08-31T13:59:44;18.90;99.90
31837;DHT22;18401;49.344;6.240;2023-08-31T14:02:10;18.80;99.90
31837;DHT22;18401;49.344;6.240;2023-08-31T14:04:35;18.70;99.90
31837;DHT22;18401;49.344;6.240;2023-08-31T14:07:01;18.60;99.90
31837;DHT22;18401;49.344;6.240;2023-08-31T14:09:30;18.50;99.90
31837;DHT22;18401;49.344;6.240;2023-08-31T14:11:57;18.50;99.90
31837;DHT22;18401;49.344;6.240;2023-08-31T14:14:22;18.50;99.90
31837;DHT22;18401;49.344;6.240;2023-08-31T14:16:49;18.40;99.90
31837;DHT22;18401;49.344;6.240;2023-08-31T14:19:15;18.30;99.90
31837;DHT22;18401;49.344;6.240;2023-08-31T14:21:40;18.40;99.90
31837;DHT22;18401;49.344;6.240;2023-08-31T14:24:06;18.50;99.90
31837;DHT22;18401;49.344;6.240;2023-08-31T14:26:32;18.60;99.90
31837;DHT22;18401;49.344;6.240;2023-08-31T14:28:58;18.70;99.90
31837;DHT22;18401;49.344;6.240;2023-08-31T14:31:23;18.90;99.90
31837;DHT22;18401;49.344;6.240;2023-08-31T14:33:49;18.80;99.90
31837;DHT22;18401;49.344;6.240;2023-08-31T14:36:16;18.90;99.90
31837;DHT22;18401;49.344;6.240;2023-08-31T14:38:42;19.00;99.90
31837;DHT22;18401;49.344;6.240;2023-08-31T14:41:08;19.30;99.90
31837;DHT22;18401;49.344;6.240;2023-08-31T14:43:33;19.30;99.90
31837;DHT22;18401;49.344;6.240;2023-08-31T14:46:00;19.20;99.90
31837;DHT22;18401;49.344;6.240;2023-08-31T14:48:30;19.10;99.90
31837;DHT22;18401;49.344;6.240;2023-08-31T14:50:56;19.00;99.90
31837;DHT22;18401;49.344;6.240;2023-08-31T14:53:24;18.90;99.90
31837;DHT22;18401;49.344;6.240;2023-08-31T14:55:50;18.60;99.90
31837;DHT22;18401;49.344;6.240;2023-08-31T14:58:16;18.50;99.90
31837;DHT22;18401;49.344;6.240;2023-08-31T15:00:42;18.20;99.90
31837;DHT22;18401;49.344;6.240;2023-08-31T15:03:07;18.00;99.90
31837;DHT22;18401;49.344;6.240;2023-08-31T15:05:34;17.70;99.90
31837;DHT22;18401;49.344;6.240;2023-08-31T15:08:03;17.30;99.90
31837;DHT22;18401;49.344;6.240;2023-08-31T15:10:29;17.30;99.90
31837;DHT22;18401;49.344;6.240;2023-08-31T15:12:54;17.10;99.90
31837;DHT22;18401;49.344;6.240;2023-08-31T15:15:25;17.00;99.90
31837;DHT22;18401;49.344;6.240;2023-08-31T15:17:51;16.90;99.90
31837;DHT22;18401;49.344;6.240;2023-08-31T15:20:17;16.90;99.90
31837;DHT22;18401;49.344;6.240;2023-08-31T15:22:42;17.00;99.90
31837;DHT22;18401;49.344;6.240;2023-08-31T15:25:08;17.10;99.90
31837;DHT22;18401;49.344;6.240;2023-08-31T15:27:34;17.20;99.90
31837;DHT22;18401;49.344;6.240;2023-08-31T15:30:00;17.20;99.90
31837;DHT22;18401;49.344;6.240;2023-08-31T15:32:26;17.20;99.90
31837;DHT22;18401;49.344;6.240;2023-08-31T15:34:51;17.10;99.90
31837;DHT22;18401;49.344;6.240;2023-08-31T15:37:17;17.30;99.90
31837;DHT22;18401;49.344;6.240;2023-08-31T15:39:43;17.30;99.90
31837;DHT22;18401;49.344;6.240;2023-08-31T15:42:08;17.20;99.90
31837;DHT22;18401;49.344;6.240;2023-08-31T15:44:41;17.20;99.90
31837;DHT22;18401;49.344;6.240;2023-08-31T15:47:08;17.10;99.90
31837;DHT22;18401;49.344;6.240;2023-08-31T15:49:33;17.20;99.90
31837;DHT22;18401;49.344;6.240;2023-08-31T15:51:59;17.10;99.90
31837;DHT22;18401;49.344;6.240;2023-08-31T15:54:24;17.00;99.90
31837;DHT22;18401;49.344;6.240;2023-08-31T15:56:50;16.80;99.90
31837;DHT22;18401;49.344;6.240;2023-08-31T15:59:16;16.60;99.90
31837;DHT22;18401;49.344;6.240;2023-08-31T16:01:41;16.60;99.90
31837;DHT22;18401;49.344;6.240;2023-08-31T16:04:09;16.50;99.90